Time;durP1;ratioP1;P1;durP2;ratioP2;P2;SDS_P1;SDS_P2;PMS_P1;PMS_P2;Temp;Humidity;BMP_temperature;BMP_pressure;BME280_temperature;BME280_humidity;BME280_pressure;Samples;Min_cycle;Max_cycle;Signal;HPM_P1;HPM_P2
2021/12/31 05:02:21;;;;;;;6.33;5.53;;;12.40;99.90;;;;;;5050296;23;20254;-68
2021/12/31 05:04:47;;;;;;;6.67;6.10;;;12.40;99.90;;;;;;4935670;29;20493;-69
2021/12/31 05:07:14;;;;;;;5.20;4.80;;;12.40;99.90;;;;;;4935359;29;20465;-67
2021/12/31 05:09:41;;;;;;;6.07;5.50;;;12.40;99.90;;;;;;4934985;29;20473;-67
2021/12/31 05:12:14;;;;;;;5.80;5.20;;;12.40;99.90;;;;;;4922468;29;20483;-68
2021/12/31 05:14:41;;;;;;;11.23;5.80;;;12.40;99.90;;;;;;4913542;29;20473;-69
2021/12/31 05:17:07;;;;;;;7.97;5.37;;;12.40;99.90;;;;;;4921156;29;20468;-68
2021/12/31 05:19:36;;;;;;;9.53;6.27;;;12.40;99.90;;;;;;4911440;29;20475;-68
2021/12/31 05:22:03;;;;;;;6.10;5.50;;;12.40;99.90;;;;;;4917373;29;20510;-67
2021/12/31 05:24:29;;;;;;;8.60;6.47;;;12.40;99.90;;;;;;4928621;29;20485;-69
2021/12/31 05:26:56;;;;;;;6.87;6.20;;;12.40;99.90;;;;;;4923745;29;20463;-69
2021/12/31 05:29:23;;;;;;;8.43;6.80;;;12.40;99.90;;;;;;4898514;29;20978;-68
2021/12/31 05:31:49;;;;;;;7.37;6.63;;;12.40;99.90;;;;;;4915627;29;20490;-69
2021/12/31 05:34:16;;;;;;;7.80;6.83;;;12.40;99.90;;;;;;4898231;29;20467;-69
2021/12/31 05:36:44;;;;;;;7.03;6.50;;;12.50;99.90;;;;;;4933812;29;20469;-68
2021/12/31 05:39:13;;;;;;;8.80;7.90;;;12.40;99.90;;;;;;4897180;29;20996;-68
2021/12/31 05:41:40;;;;;;;11.77;8.30;;;12.40;99.90;;;;;;4905991;29;20964;-68
2021/12/31 05:44:07;;;;;;;7.87;7.27;;;12.50;99.90;;;;;;4899702;29;20941;-69
2021/12/31 05:46:33;;;;;;;10.80;8.43;;;12.40;99.90;;;;;;4916061;29;20518;-68
2021/12/31 05:49:00;;;;;;;11.00;8.30;;;12.50;99.90;;;;;;4915695;29;20474;-69
2021/12/31 05:51:27;;;;;;;12.37;8.63;;;12.50;99.90;;;;;;4915677;29;20482;-70
2021/12/31 05:53:56;;;;;;;9.87;8.97;;;12.50;99.90;;;;;;4900152;29;20968;-70
2021/12/31 05:56:22;;;;;;;8.97;8.27;;;12.50;99.90;;;;;;4915615;29;20474;-69
2021/12/31 05:58:49;;;;;;;8.73;8.03;;;12.50;99.90;;;;;;4915486;29;20466;-70
2021/12/31 06:01:16;;;;;;;10.07;9.10;;;12.50;99.90;;;;;;4914762;29;20502;-70
2021/12/31 06:03:42;;;;;;;10.40;9.60;;;12.60;99.90;;;;;;4915010;29;20552;-69
2021/12/31 06:06:09;;;;;;;12.50;8.70;;;12.50;99.90;;;;;;4906592;29;20494;-70
2021/12/31 06:08:36;;;;;;;23.93;9.70;;;12.60;99.90;;;;;;4915596;29;20972;-69
2021/12/31 06:11:04;;;;;;;13.17;9.10;;;12.60;99.90;;;;;;4908311;29;20488;-69
2021/12/31 06:13:31;;;;;;;10.23;9.33;;;12.60;99.90;;;;;;4908451;29;20470;-69
2021/12/31 06:15:58;;;;;;;10.13;8.97;;;12.60;99.90;;;;;;4911568;29;20563;-69
2021/12/31 06:18:26;;;;;;;10.93;10.03;;;12.60;99.90;;;;;;4899769;29;20498;-69
2021/12/31 06:20:53;;;;;;;9.63;8.57;;;12.60;99.90;;;;;;4916430;29;20554;-69
2021/12/31 06:23:19;;;;;;;14.03;9.63;;;12.60;99.90;;;;;;4912185;29;20846;-70
2021/12/31 06:25:46;;;;;;;10.17;9.20;;;12.60;99.90;;;;;;4899191;29;20861;-69
2021/12/31 06:28:14;;;;;;;10.70;9.67;;;12.70;99.90;;;;;;4907513;29;20529;-69
2021/12/31 06:30:41;;;;;;;11.60;10.60;;;12.60;99.90;;;;;;4914323;29;20525;-70
2021/12/31 06:33:08;;;;;;;11.17;10.07;;;12.70;99.90;;;;;;4913970;29;20458;-70
2021/12/31 06:35:34;;;;;;;10.30;9.30;;;12.70;99.90;;;;;;4924851;29;20462;-69
2021/12/31 06:38:03;;;;;;;12.20;9.37;;;12.70;99.90;;;;;;4908490;29;20479;-70
2021/12/31 06:40:31;;;;;;;9.53;8.63;;;12.70;99.90;;;;;;4925779;29;20922;-69
2021/12/31 06:42:58;;;;;;;10.37;9.47;;;12.70;99.90;;;;;;4922662;29;20461;-70
2021/12/31 06:45:26;;;;;;;14.93;9.93;;;12.70;99.90;;;;;;4932775;29;20540;-69
2021/12/31 06:47:53;;;;;;;10.20;9.30;;;12.80;99.90;;;;;;4917867;29;20467;-69
2021/12/31 06:50:20;;;;;;;9.57;8.67;;;12.70;99.90;;;;;;4895822;29;20474;-70
2021/12/31 06:52:46;;;;;;;10.07;9.07;;;12.70;99.90;;;;;;4921162;29;20469;-70
2021/12/31 06:55:14;;;;;;;9.77;8.77;;;12.70;99.90;;;;;;4915907;29;20518;-70
2021/12/31 06:57:40;;;;;;;11.50;8.83;;;12.70;99.90;;;;;;4923603;29;20466;-70
2021/12/31 07:00:09;;;;;;;10.17;8.63;;;12.70;99.90;;;;;;4914734;29;20934;-70
2021/12/31 07:02:37;;;;;;;9.90;8.90;;;12.80;99.90;;;;;;4914620;29;20502;-69
2021/12/31 07:05:04;;;;;;;8.87;8.17;;;12.80;99.90;;;;;;4918920;29;20571;-69
2021/12/31 07:07:30;;;;;;;7.53;7.03;;;12.80;99.90;;;;;;4929628;29;20466;-69
2021/12/31 07:09:57;;;;;;;9.43;8.80;;;12.70;99.90;;;;;;4910660;29;20462;-68
2021/12/31 07:12:24;;;;;;;8.30;7.50;;;12.70;99.90;;;;;;4914336;29;20479;-70
2021/12/31 07:14:50;;;;;;;8.80;8.07;;;12.70;99.90;;;;;;4923024;29;20959;-70
2021/12/31 07:17:17;;;;;;;8.47;7.67;;;12.70;99.90;;;;;;4933170;29;20919;-69
2021/12/31 07:19:45;;;;;;;10.80;7.53;;;12.70;99.90;;;;;;4906856;29;20469;-70
2021/12/31 07:22:12;;;;;;;8.07;7.37;;;12.70;99.90;;;;;;4914241;29;20628;-70
2021/12/31 07:24:38;;;;;;;7.60;7.00;;;12.70;99.90;;;;;;4915038;29;20542;-70
2021/12/31 07:27:05;;;;;;;8.47;7.67;;;12.70;99.90;;;;;;4933428;29;20472;-70
2021/12/31 07:29:32;;;;;;;7.40;6.90;;;12.70;99.90;;;;;;4932505;29;20473;-69
2021/12/31 07:31:59;;;;;;;7.00;6.33;;;12.70;99.90;;;;;;4933116;29;20508;-70
2021/12/31 07:34:26;;;;;;;7.70;7.30;;;12.70;99.90;;;;;;4924595;29;20798;-70
2021/12/31 07:36:54;;;;;;;7.70;7.00;;;12.70;99.90;;;;;;4914887;29;20458;-70
2021/12/31 07:39:24;;;;;;;6.40;6.00;;;12.70;99.90;;;;;;4919818;29;21022;-70
2021/12/31 07:41:51;;;;;;;7.37;6.83;;;12.70;99.90;;;;;;4932603;29;20489;-70
2021/12/31 07:44:17;;;;;;;7.03;6.50;;;12.70;99.90;;;;;;4913623;29;20505;-69
2021/12/31 07:46:46;;;;;;;6.47;5.97;;;12.80;99.90;;;;;;4916644;29;20485;-68
2021/12/31 07:49:12;;;;;;;7.00;6.50;;;12.80;99.90;;;;;;4909764;29;20554;-69
2021/12/31 07:51:39;;;;;;;6.37;5.97;;;12.80;99.90;;;;;;4894862;29;20487;-69
2021/12/31 07:54:07;;;;;;;6.70;6.07;;;12.80;99.90;;;;;;4923052;29;20562;-70
2021/12/31 07:56:33;;;;;;;7.20;6.60;;;12.80;99.90;;;;;;4929788;29;20461;-69
2021/12/31 07:59:00;;;;;;;7.43;6.93;;;12.90;99.90;;;;;;4919760;29;20462;-69
2021/12/31 08:01:27;;;;;;;8.10;7.70;;;12.80;99.90;;;;;;4930865;29;20496;-71
2021/12/31 08:03:53;;;;;;;7.57;6.87;;;12.80;99.90;;;;;;4928378;29;20493;-69
2021/12/31 08:06:20;;;;;;;12.20;6.90;;;12.80;99.90;;;;;;4916993;29;20487;-70
2021/12/31 08:08:47;;;;;;;6.20;5.70;;;12.80;99.90;;;;;;4917763;29;20529;-69
2021/12/31 08:11:15;;;;;;;6.43;5.93;;;12.80;99.90;;;;;;4915923;29;20565;-68
2021/12/31 08:13:41;;;;;;;8.77;6.67;;;12.90;99.90;;;;;;4916037;29;20465;-70
2021/12/31 08:16:08;;;;;;;7.77;7.20;;;12.90;99.90;;;;;;4922382;29;20520;-69
2021/12/31 08:18:35;;;;;;;7.47;6.80;;;12.90;99.90;;;;;;4927124;29;20490;-68
2021/12/31 08:21:01;;;;;;;5.90;5.60;;;12.90;99.90;;;;;;4917232;29;20536;-69
2021/12/31 08:23:28;;;;;;;6.87;6.37;;;12.90;99.90;;;;;;4915623;29;20469;-69
2021/12/31 08:25:54;;;;;;;5.80;5.50;;;13.00;99.90;;;;;;4918306;29;20515;-69
2021/12/31 08:28:22;;;;;;;6.27;5.40;;;12.90;99.90;;;;;;4919621;29;20569;-69
2021/12/31 08:30:49;;;;;;;5.70;5.30;;;13.00;99.90;;;;;;4916465;29;20498;-68
2021/12/31 08:33:16;;;;;;;5.87;5.47;;;13.00;99.90;;;;;;4903163;29;20467;-70
2021/12/31 08:35:42;;;;;;;5.57;5.10;;;13.00;99.90;;;;;;4908613;29;20856;-69
2021/12/31 08:38:09;;;;;;;4.83;4.67;;;13.00;99.90;;;;;;4915700;29;20466;-67
2021/12/31 08:40:36;;;;;;;5.00;4.77;;;13.10;99.90;;;;;;4914459;29;20490;-67
2021/12/31 08:43:03;;;;;;;5.00;4.80;;;13.20;99.90;;;;;;4921602;29;20462;-72
2021/12/31 08:45:32;;;;;;;4.63;4.27;;;13.20;99.90;;;;;;4914663;29;20486;-69
2021/12/31 08:48:00;;;;;;;5.47;5.07;;;13.20;99.90;;;;;;4913454;29;20939;-70
2021/12/31 08:50:27;;;;;;;4.57;3.90;;;13.20;99.90;;;;;;4916286;29;20529;-70
2021/12/31 08:52:54;;;;;;;4.60;4.30;;;13.20;99.90;;;;;;4901123;29;20860;-69
2021/12/31 08:55:21;;;;;;;4.80;4.50;;;13.20;99.90;;;;;;4897723;29;20471;-68
2021/12/31 08:57:48;;;;;;;4.47;4.27;;;13.20;99.90;;;;;;4915340;29;20473;-68
2021/12/31 09:00:16;;;;;;;4.20;3.90;;;13.20;99.90;;;;;;4915543;29;20477;-69
2021/12/31 09:02:45;;;;;;;4.40;4.00;;;13.20;99.90;;;;;;4898375;29;20467;-68
2021/12/31 09:05:12;;;;;;;4.30;4.00;;;13.20;99.90;;;;;;4913578;29;20509;-69
2021/12/31 09:07:39;;;;;;;4.13;3.90;;;13.20;99.90;;;;;;4915810;29;20845;-68
2021/12/31 09:10:08;;;;;;;4.40;4.00;;;13.20;99.90;;;;;;4900995;29;20543;-68
2021/12/31 09:12:35;;;;;;;3.43;3.23;;;13.20;99.90;;;;;;4909095;29;20482;-67
2021/12/31 09:15:01;;;;;;;3.90;3.63;;;13.30;99.90;;;;;;4914671;29;20467;-69
2021/12/31 09:17:28;;;;;;;4.83;4.53;;;13.30;99.90;;;;;;4909027;29;20838;-67
2021/12/31 09:19:56;;;;;;;5.10;4.80;;;13.30;99.90;;;;;;4910354;29;20466;-69
2021/12/31 09:22:23;;;;;;;3.70;3.50;;;13.40;99.90;;;;;;4916772;29;20482;-70
2021/12/31 09:24:50;;;;;;;5.37;5.00;;;13.30;99.90;;;;;;4905004;29;20463;-70
2021/12/31 09:27:16;;;;;;;6.17;3.93;;;13.40;99.90;;;;;;4919897;29;20476;-68
2021/12/31 09:29:43;;;;;;;3.97;3.70;;;13.40;99.90;;;;;;4906771;29;20468;-69
2021/12/31 09:32:10;;;;;;;3.60;3.40;;;13.40;99.90;;;;;;4906603;29;20483;-69
2021/12/31 09:34:37;;;;;;;4.13;3.83;;;13.40;99.90;;;;;;4910752;29;20471;-69
2021/12/31 09:37:05;;;;;;;3.10;3.00;;;13.50;99.90;;;;;;4911556;29;20457;-69
2021/12/31 09:39:32;;;;;;;3.53;3.10;;;13.50;99.90;;;;;;4921416;29;20514;-67
2021/12/31 09:41:58;;;;;;;5.57;4.00;;;13.50;99.90;;;;;;4905508;29;20493;-70
2021/12/31 09:44:26;;;;;;;3.47;3.27;;;13.50;99.90;;;;;;4913504;29;20463;-68
2021/12/31 09:46:52;;;;;;;3.73;3.63;;;13.40;99.90;;;;;;4900302;29;20510;-69
2021/12/31 09:49:19;;;;;;;3.90;3.60;;;13.40;99.90;;;;;;4932933;29;20845;-70
2021/12/31 09:51:46;;;;;;;3.93;3.73;;;13.50;99.90;;;;;;4931271;29;20498;-69
2021/12/31 09:54:14;;;;;;;5.30;4.90;;;13.50;99.90;;;;;;4917742;29;20485;-70
2021/12/31 09:56:41;;;;;;;3.40;3.30;;;13.60;99.90;;;;;;4917012;29;20521;-70
2021/12/31 09:59:09;;;;;;;4.27;4.00;;;13.60;99.90;;;;;;4916409;29;20473;-71
2021/12/31 10:01:45;;;;;;;4.47;4.23;;;13.60;99.90;;;;;;4918245;29;20552;-71
2021/12/31 10:04:11;;;;;;;4.07;3.67;;;13.50;99.90;;;;;;4923636;29;20469;-71
2021/12/31 10:06:38;;;;;;;4.13;4.03;;;13.60;99.90;;;;;;4909598;29;20494;-71
2021/12/31 10:09:05;;;;;;;3.40;3.30;;;13.60;99.90;;;;;;4906790;29;20470;-69
2021/12/31 10:11:33;;;;;;;4.13;3.90;;;13.60;99.90;;;;;;4918687;29;20486;-70
2021/12/31 10:14:01;;;;;;;4.20;4.00;;;13.60;99.90;;;;;;4914912;29;21050;-69
2021/12/31 10:16:30;;;;;;;3.80;3.53;;;13.70;99.90;;;;;;4915089;29;20516;-69
2021/12/31 10:19:08;;;;;;;3.13;3.13;;;13.70;99.90;;;;;;4916048;29;20462;-71
2021/12/31 10:21:38;;;;;;;4.93;3.83;;;13.70;99.90;;;;;;4915993;29;20492;-69
2021/12/31 10:24:22;;;;;;;3.37;3.20;;;13.70;99.90;;;;;;4915930;29;20482;-71
2021/12/31 10:26:51;;;;;;;3.53;3.10;;;13.70;99.90;;;;;;4901751;29;21438;-70
2021/12/31 10:29:18;;;;;;;3.83;3.73;;;13.70;99.90;;;;;;4915492;29;20848;-71
2021/12/31 10:31:46;;;;;;;3.03;2.83;;;13.70;99.90;;;;;;4906419;29;20498;-72
2021/12/31 10:34:26;;;;;;;7.60;5.80;;;13.80;99.90;;;;;;4904929;29;20471;-71
2021/12/31 10:36:53;;;;;;;4.70;4.30;;;13.80;99.90;;;;;;4913825;29;20459;-72
2021/12/31 10:39:21;;;;;;;5.70;5.30;;;13.80;99.90;;;;;;4914040;29;20466;-72
2021/12/31 10:42:03;;;;;;;5.30;5.00;;;13.80;99.90;;;;;;4922058;29;20481;-70
2021/12/31 10:44:48;;;;;;;4.53;4.23;;;13.80;99.90;;;;;;4920340;29;20469;-72
2021/12/31 10:47:16;;;;;;;4.20;3.93;;;13.90;99.90;;;;;;4919416;29;20527;-70
2021/12/31 10:50:10;;;;;;;4.27;4.17;;;13.90;99.90;;;;;;4925799;29;20566;-70
2021/12/31 10:52:40;;;;;;;3.57;3.27;;;13.90;99.90;;;;;;4915872;29;20796;-72
2021/12/31 10:55:17;;;;;;;4.20;4.00;;;13.90;99.90;;;;;;4926688;29;20466;-71
2021/12/31 10:57:47;;;;;;;3.77;3.50;;;13.90;99.90;;;;;;4901204;29;20466;-70
2021/12/31 11:00:16;;;;;;;3.90;3.60;;;13.90;99.90;;;;;;4930812;29;20457;-71
2021/12/31 11:02:43;;;;;;;3.53;2.87;;;13.90;99.90;;;;;;4920194;29;20528;-70
2021/12/31 11:05:12;;;;;;;3.50;3.40;;;13.90;99.90;;;;;;4922779;29;20530;-71
2021/12/31 11:07:40;;;;;;;3.87;3.77;;;13.90;99.90;;;;;;4914324;29;20844;-70
2021/12/31 11:10:08;;;;;;;4.13;3.57;;;13.90;99.90;;;;;;4920276;29;20478;-69
2021/12/31 11:12:35;;;;;;;4.10;3.90;;;13.80;99.90;;;;;;4905326;29;20502;-70
2021/12/31 11:15:05;;;;;;;3.87;3.53;;;13.80;99.90;;;;;;4913225;29;20597;-71
2021/12/31 11:17:32;;;;;;;2.93;2.83;;;13.80;99.90;;;;;;4922601;29;20465;-71
2021/12/31 11:19:59;;;;;;;3.17;2.97;;;13.80;99.90;;;;;;4930832;29;20470;-69
2021/12/31 11:22:28;;;;;;;4.07;3.87;;;13.80;99.90;;;;;;4929737;29;20488;-70
2021/12/31 11:25:25;;;;;;;3.83;3.50;;;13.80;99.90;;;;;;4929421;29;20472;-70
2021/12/31 11:27:53;;;;;;;3.50;3.30;;;13.80;99.90;;;;;;4926978;29;20836;-70
2021/12/31 11:30:28;;;;;;;3.57;3.37;;;13.80;99.90;;;;;;4905528;29;20474;-69
2021/12/31 11:32:58;;;;;;;3.90;3.70;;;13.70;99.90;;;;;;4909270;29;20474;-70
2021/12/31 11:35:33;;;;;;;3.77;3.40;;;13.70;99.90;;;;;;4914375;29;20838;-69
2021/12/31 11:38:01;;;;;;;4.10;3.80;;;13.70;99.90;;;;;;4917433;29;20808;-69
2021/12/31 11:40:31;;;;;;;3.17;2.97;;;13.70;99.90;;;;;;4917866;29;20495;-70
2021/12/31 11:43:26;;;;;;;3.10;3.00;;;13.70;99.90;;;;;;4917466;29;20514;-70
2021/12/31 11:46:33;;;;;;;3.67;3.50;;;13.70;99.90;;;;;;4898801;29;20523;-70
2021/12/31 11:49:01;;;;;;;3.30;3.20;;;13.70;99.90;;;;;;4917295;29;20963;-70
2021/12/31 11:51:34;;;;;;;10.50;6.37;;;13.60;99.90;;;;;;4918573;29;20482;-69
2021/12/31 11:54:17;;;;;;;3.10;3.00;;;13.70;99.90;;;;;;4899221;29;20483;-70
2021/12/31 11:57:06;;;;;;;3.67;3.53;;;13.70;99.90;;;;;;4898654;29;20463;-69
2021/12/31 11:59:49;;;;;;;2.87;2.87;;;13.70;99.90;;;;;;4902075;29;20533;-69
2021/12/31 12:02:22;;;;;;;3.13;3.03;;;13.70;99.90;;;;;;4925054;29;20490;-68
2021/12/31 12:05:08;;;;;;;3.40;3.20;;;13.70;99.90;;;;;;4912463;29;20491;-69
2021/12/31 12:07:37;;;;;;;2.70;2.70;;;13.70;99.90;;;;;;4928216;29;20576;-69
2021/12/31 12:10:24;;;;;;;3.57;3.47;;;13.70;99.90;;;;;;4938731;29;20481;-69
2021/12/31 12:12:56;;;;;;;3.80;3.50;;;13.70;99.90;;;;;;4944142;29;20525;-69
2021/12/31 12:15:33;;;;;;;3.83;3.40;;;13.70;99.90;;;;;;4930708;29;20502;-68
2021/12/31 12:18:03;;;;;;;3.67;3.57;;;13.70;99.90;;;;;;4928738;29;20465;-71
2021/12/31 12:20:35;;;;;;;3.50;3.40;;;13.70;99.90;;;;;;4937316;29;20469;-70
2021/12/31 12:23:02;;;;;;;3.70;3.50;;;13.70;99.90;;;;;;4929480;29;20462;-71
2021/12/31 12:25:30;;;;;;;4.17;3.37;;;13.60;99.90;;;;;;4917732;29;20473;-70
2021/12/31 12:28:02;;;;;;;2.90;2.80;;;13.60;99.90;;;;;;4922126;29;20560;-70
2021/12/31 12:30:29;;;;;;;4.63;4.30;;;13.60;99.90;;;;;;4930271;29;20469;-69
2021/12/31 12:33:08;;;;;;;3.83;3.40;;;13.60;99.90;;;;;;4916394;29;20474;-70
2021/12/31 12:35:37;;;;;;;4.23;3.93;;;13.60;99.90;;;;;;4912664;29;20531;-70
2021/12/31 12:38:06;;;;;;;4.47;3.87;;;13.60;99.90;;;;;;4908114;29;20464;-71
2021/12/31 12:40:38;;;;;;;3.37;3.23;;;13.60;99.90;;;;;;4918147;29;20975;-70
2021/12/31 12:43:12;;;;;;;4.03;3.63;;;13.50;99.90;;;;;;4915610;29;20474;-69
2021/12/31 12:45:40;;;;;;;3.63;3.43;;;13.50;99.90;;;;;;4897704;29;20470;-70
2021/12/31 12:48:07;;;;;;;3.23;3.13;;;13.50;99.90;;;;;;4909598;29;20496;-70
2021/12/31 12:50:34;;;;;;;3.07;3.07;;;13.50;99.90;;;;;;4915719;29;20565;-70
2021/12/31 12:53:01;;;;;;;4.37;3.97;;;13.50;99.90;;;;;;4916617;29;20475;-70
2021/12/31 12:55:29;;;;;;;3.23;3.07;;;13.50;99.90;;;;;;4899117;29;20474;-71
2021/12/31 12:57:57;;;;;;;4.03;3.90;;;13.50;99.90;;;;;;4905688;29;20489;-69
2021/12/31 13:00:38;;;;;;;4.40;4.10;;;13.50;99.90;;;;;;4917266;29;20569;-69
2021/12/31 13:03:07;;;;;;;3.20;3.10;;;13.60;99.90;;;;;;4916222;29;20472;-70
2021/12/31 13:05:34;;;;;;;3.03;2.83;;;13.60;99.90;;;;;;4899516;29;20470;-69
2021/12/31 13:08:01;;;;;;;5.13;4.80;;;13.60;99.90;;;;;;4903949;29;20486;-69
2021/12/31 13:10:28;;;;;;;4.63;3.67;;;13.60;99.90;;;;;;4926395;29;20469;-68
2021/12/31 13:12:55;;;;;;;4.33;3.30;;;13.50;99.90;;;;;;4911716;29;20558;-71
2021/12/31 13:15:23;;;;;;;4.57;4.33;;;13.50;99.90;;;;;;4912712;29;20463;-68
2021/12/31 13:18:04;;;;;;;8.80;8.00;;;13.50;99.90;;;;;;4896839;29;20467;-70
2021/12/31 13:20:32;;;;;;;4.20;3.90;;;13.50;99.90;;;;;;4900114;29;21209;-71
2021/12/31 13:23:01;;;;;;;3.77;3.67;;;13.40;99.90;;;;;;4896939;29;20467;-70
2021/12/31 13:25:39;;;;;;;4.97;4.40;;;13.40;99.90;;;;;;4897396;29;20467;-71
2021/12/31 13:28:14;;;;;;;3.97;3.80;;;13.40;99.90;;;;;;4896729;29;20871;-71
2021/12/31 13:30:52;;;;;;;4.40;4.20;;;13.40;99.90;;;;;;4900058;29;20491;-70
2021/12/31 13:33:40;;;;;;;4.40;4.10;;;13.40;99.90;;;;;;4934023;29;20946;-70
2021/12/31 13:36:26;;;;;;;4.10;3.47;;;13.40;99.90;;;;;;4923662;29;20467;-71
2021/12/31 13:39:05;;;;;;;4.53;4.13;;;13.40;99.90;;;;;;4904317;29;20471;-70
2021/12/31 13:41:33;;;;;;;3.60;3.50;;;13.40;99.90;;;;;;4904127;29;20486;-70
2021/12/31 13:44:02;;;;;;;4.63;4.43;;;13.40;99.90;;;;;;4915052;29;20537;-71
2021/12/31 13:46:32;;;;;;;5.03;4.60;;;13.40;99.90;;;;;;4909086;29;20514;-69
2021/12/31 13:49:06;;;;;;;4.00;3.83;;;13.40;99.90;;;;;;4896521;29;20961;-70
2021/12/31 13:51:35;;;;;;;3.80;3.63;;;13.40;99.90;;;;;;4903618;29;21254;-70
2021/12/31 13:54:02;;;;;;;4.00;3.80;;;13.40;99.90;;;;;;4915383;29;20463;-71
2021/12/31 13:56:34;;;;;;;4.63;4.33;;;13.40;99.90;;;;;;4909446;29;20472;-70
2021/12/31 13:59:16;;;;;;;4.83;4.50;;;13.30;99.90;;;;;;4895898;29;20540;-69
2021/12/31 14:02:04;;;;;;;4.50;4.20;;;13.40;99.90;;;;;;4904853;29;20980;-69
2021/12/31 14:04:34;;;;;;;3.60;3.50;;;13.30;99.90;;;;;;4915152;29;20466;-68
2021/12/31 14:07:20;;;;;;;4.10;3.80;;;13.30;99.90;;;;;;4909680;29;20498;-70
2021/12/31 14:09:48;;;;;;;4.97;4.67;;;13.30;99.90;;;;;;4911197;29;20541;-71
2021/12/31 14:12:15;;;;;;;3.70;3.60;;;13.30;99.90;;;;;;4919047;29;20482;-70
2021/12/31 14:14:42;;;;;;;3.80;3.60;;;13.20;99.90;;;;;;4913575;29;20466;-70
2021/12/31 14:17:09;;;;;;;5.30;4.80;;;13.20;99.90;;;;;;4913520;29;20454;-69
2021/12/31 14:19:39;;;;;;;6.23;3.83;;;13.20;99.90;;;;;;4921677;29;20501;-69
2021/12/31 14:22:07;;;;;;;5.50;5.00;;;13.10;99.90;;;;;;4908536;29;20485;-71
2021/12/31 14:24:35;;;;;;;4.20;3.90;;;13.00;99.90;;;;;;4903282;29;20486;-68
2021/12/31 14:27:02;;;;;;;4.27;3.60;;;13.00;99.90;;;;;;4909925;29;20517;-70
2021/12/31 14:29:29;;;;;;;5.00;4.70;;;13.00;99.90;;;;;;4906270;29;20468;-70
2021/12/31 14:31:56;;;;;;;6.40;5.80;;;13.00;99.90;;;;;;4919532;29;20553;-70
2021/12/31 14:34:25;;;;;;;11.23;8.60;;;12.90;99.90;;;;;;4933112;29;20512;-70
2021/12/31 14:36:59;;;;;;;6.77;6.23;;;12.90;99.90;;;;;;4923873;29;20458;-68
2021/12/31 14:39:26;;;;;;;6.73;6.23;;;12.90;99.90;;;;;;4925555;29;20474;-70
2021/12/31 14:41:53;;;;;;;8.40;6.33;;;12.80;99.90;;;;;;4922136;29;20489;-70
2021/12/31 14:44:20;;;;;;;6.50;5.63;;;12.70;99.90;;;;;;4916251;29;20474;-70
2021/12/31 14:46:46;;;;;;;6.50;5.40;;;12.70;99.90;;;;;;4907335;29;20487;-70
2021/12/31 14:49:13;;;;;;;6.60;5.87;;;12.60;99.90;;;;;;4918410;29;20546;-70
2021/12/31 14:51:40;;;;;;;5.67;5.30;;;12.50;99.90;;;;;;4909332;29;20494;-68
2021/12/31 14:54:10;;;;;;;6.30;5.70;;;12.50;99.90;;;;;;4914045;29;20507;-70
2021/12/31 14:56:38;;;;;;;5.60;5.20;;;12.50;99.90;;;;;;4909674;29;20463;-70
2021/12/31 14:59:07;;;;;;;6.60;6.00;;;12.40;99.90;;;;;;4932507;29;20476;-70
2021/12/31 15:01:33;;;;;;;6.30;5.10;;;12.40;99.90;;;;;;4914316;29;20818;-69
2021/12/31 15:04:00;;;;;;;6.10;5.00;;;12.30;99.90;;;;;;4913335;29;20830;-71
2021/12/31 15:06:27;;;;;;;6.20;5.70;;;12.30;99.90;;;;;;4912466;29;20950;-70
2021/12/31 15:08:54;;;;;;;6.78;6.20;;;12.20;99.90;;;;;;4917671;29;20462;-70
2021/12/31 15:11:22;;;;;;;6.20;5.60;;;12.20;99.90;;;;;;4914803;29;20266;-69
2021/12/31 15:13:49;;;;;;;6.00;5.40;;;12.10;99.90;;;;;;4915275;29;20831;-69
2021/12/31 15:16:18;;;;;;;6.53;5.80;;;12.10;99.90;;;;;;4908646;29;20301;-71
2021/12/31 15:18:45;;;;;;;7.80;7.10;;;12.10;99.90;;;;;;4910680;29;20471;-69
2021/12/31 15:21:12;;;;;;;6.07;5.57;;;12.00;99.90;;;;;;4907064;29;20491;-71
2021/12/31 15:23:38;;;;;;;6.67;5.97;;;12.00;99.90;;;;;;4917978;29;20473;-70
2021/12/31 15:26:05;;;;;;;5.53;5.13;;;12.00;99.90;;;;;;4916834;29;20517;-68
2021/12/31 15:28:33;;;;;;;5.77;5.23;;;12.00;99.90;;;;;;4917177;29;20972;-69
2021/12/31 15:31:00;;;;;;;5.83;5.33;;;12.00;99.90;;;;;;4906132;29;20485;-68
2021/12/31 15:33:26;;;;;;;5.38;4.93;;;12.00;99.90;;;;;;4915210;29;20474;-71
2021/12/31 15:35:54;;;;;;;6.20;5.00;;;12.00;99.90;;;;;;4933082;29;20216;-68
2021/12/31 15:38:20;;;;;;;5.63;5.27;;;11.90;99.90;;;;;;4910251;29;21144;-68
2021/12/31 15:40:47;;;;;;;5.57;5.23;;;11.90;99.90;;;;;;4910280;29;20486;-66
2021/12/31 15:43:15;;;;;;;6.47;5.73;;;11.90;99.90;;;;;;4926881;29;20469;-71
2021/12/31 15:45:43;;;;;;;6.70;6.10;;;11.90;99.90;;;;;;4922256;29;20471;-68
2021/12/31 15:48:10;;;;;;;6.32;5.85;;;11.90;99.90;;;;;;4911729;29;20883;-69
2021/12/31 15:50:38;;;;;;;6.80;6.13;;;11.90;99.90;;;;;;4905770;29;20234;-69
2021/12/31 15:53:05;;;;;;;6.70;6.20;;;11.90;99.90;;;;;;4899705;29;20810;-69
2021/12/31 15:55:32;;;;;;;7.13;6.40;;;11.90;99.90;;;;;;4895037;29;20471;-69
2021/12/31 15:57:59;;;;;;;8.80;5.97;;;11.90;99.90;;;;;;4911102;29;20199;-69
2021/12/31 16:00:27;;;;;;;7.20;6.50;;;11.90;99.90;;;;;;4920043;29;20553;-69
2021/12/31 16:02:55;;;;;;;8.02;6.18;;;11.80;99.90;;;;;;4904771;29;20809;-69
2021/12/31 16:05:22;;;;;;;14.73;10.70;;;11.80;99.90;;;;;;4907032;29;20221;-69
2021/12/31 16:07:48;;;;;;;14.57;10.30;;;11.90;99.90;;;;;;4913170;29;20499;-70
2021/12/31 16:10:16;;;;;;;7.72;7.03;;;11.80;99.90;;;;;;4920054;29;20672;-70
2021/12/31 16:12:45;;;;;;;8.37;7.63;;;11.80;99.90;;;;;;4903577;29;20207;-70
2021/12/31 16:15:14;;;;;;;5.90;5.60;;;11.80;99.90;;;;;;4925937;29;20528;-71
2021/12/31 16:17:41;;;;;;;9.18;7.97;;;11.80;99.90;;;;;;4914659;29;20521;-68
2021/12/31 16:20:11;;;;;;;11.70;8.07;;;11.80;99.90;;;;;;4898000;29;20222;-71
2021/12/31 16:22:38;;;;;;;9.43;8.20;;;11.80;99.90;;;;;;4904240;29;20483;-70
2021/12/31 16:25:06;;;;;;;12.50;11.27;;;11.80;99.90;;;;;;4910276;29;20476;-70
2021/12/31 16:27:33;;;;;;;10.70;9.68;;;11.80;99.90;;;;;;4917169;29;20873;-69
2021/12/31 16:30:02;;;;;;;13.88;9.68;;;11.80;99.90;;;;;;4910797;29;20549;-69
2021/12/31 16:32:30;;;;;;;11.30;10.30;;;11.80;99.90;;;;;;4915422;29;20254;-68
2021/12/31 16:34:59;;;;;;;8.40;7.57;;;12.00;99.90;;;;;;4907202;29;20865;-68
2021/12/31 16:37:27;;;;;;;8.00;7.20;;;11.90;99.90;;;;;;4916690;29;20474;-68
2021/12/31 16:39:55;;;;;;;6.47;5.95;;;11.90;99.90;;;;;;4907251;29;20214;-68
2021/12/31 16:42:21;;;;;;;5.38;5.03;;;11.90;99.90;;;;;;4898000;29;20241;-68
2021/12/31 16:44:49;;;;;;;4.85;4.63;;;11.80;99.90;;;;;;4898525;29;20207;-68
2021/12/31 16:47:16;;;;;;;10.60;7.83;;;11.80;99.90;;;;;;4905590;29;20218;-68
2021/12/31 16:49:43;;;;;;;7.30;6.60;;;11.80;99.90;;;;;;4910973;29;20463;-68
2021/12/31 16:52:11;;;;;;;6.40;5.90;;;11.80;99.90;;;;;;4900400;29;20490;-67
2021/12/31 16:54:39;;;;;;;6.28;5.75;;;11.80;99.90;;;;;;4911046;29;20486;-67
2021/12/31 16:57:06;;;;;;;5.95;5.50;;;11.80;99.90;;;;;;4916299;29;20215;-68
2021/12/31 16:59:33;;;;;;;7.05;6.40;;;11.80;99.90;;;;;;4923634;29;20647;-68
2021/12/31 17:02:00;;;;;;;11.40;9.65;;;11.80;99.90;;;;;;4904322;29;20242;-68
2021/12/31 17:04:27;;;;;;;6.93;6.18;;;11.80;99.90;;;;;;4932039;29;20209;-69
2021/12/31 17:06:53;;;;;;;5.97;5.47;;;11.80;99.90;;;;;;4916402;29;20214;-67
2021/12/31 17:09:20;;;;;;;5.93;5.45;;;11.80;99.90;;;;;;4911785;29;20238;-67
2021/12/31 17:11:48;;;;;;;6.25;5.65;;;11.80;99.90;;;;;;4911995;29;20230;-69
2021/12/31 17:14:18;;;;;;;6.07;5.68;;;11.80;99.90;;;;;;4914128;29;20679;-68
2021/12/31 17:16:45;;;;;;;6.80;6.10;;;11.80;99.90;;;;;;4911653;29;20198;-68
2021/12/31 17:19:12;;;;;;;5.75;5.25;;;11.80;99.90;;;;;;4913751;29;20466;-67
2021/12/31 17:21:38;;;;;;;6.60;6.10;;;11.80;99.90;;;;;;4913397;29;20634;-69
2021/12/31 17:24:06;;;;;;;6.50;6.10;;;11.80;99.90;;;;;;4904511;29;20216;-69
2021/12/31 17:26:33;;;;;;;7.43;6.93;;;11.80;99.90;;;;;;4912194;29;20478;-69
2021/12/31 17:29:01;;;;;;;7.10;6.70;;;11.80;99.90;;;;;;4913198;29;20494;-69
2021/12/31 17:31:28;;;;;;;7.88;7.28;;;11.80;99.90;;;;;;4911854;29;20515;-69
2021/12/31 17:33:54;;;;;;;6.15;5.70;;;11.80;99.90;;;;;;4902845;29;20211;-69
2021/12/31 17:36:21;;;;;;;7.37;6.87;;;11.80;99.90;;;;;;4907241;29;20211;-68
2021/12/31 17:38:48;;;;;;;7.10;5.45;;;11.80;99.90;;;;;;4911429;29;20471;-68
2021/12/31 17:41:14;;;;;;;6.13;5.53;;;11.90;99.90;;;;;;4897030;29;20616;-70
2021/12/31 17:43:41;;;;;;;7.50;6.80;;;11.90;99.90;;;;;;4914500;29;20466;-69
2021/12/31 17:46:10;;;;;;;5.80;5.40;;;11.90;99.90;;;;;;4917759;29;20477;-70
2021/12/31 17:48:38;;;;;;;6.60;6.10;;;11.90;99.90;;;;;;4909982;29;20630;-70
2021/12/31 17:51:05;;;;;;;5.97;5.57;;;11.90;99.90;;;;;;4902092;29;20562;-70
2021/12/31 17:53:32;;;;;;;6.55;5.70;;;11.90;99.90;;;;;;4900997;29;20550;-70
2021/12/31 17:55:59;;;;;;;7.97;7.37;;;11.90;99.90;;;;;;4905938;29;20616;-70